sensor_id;sensor_type;location;lat;lon;timestamp;P1;durP1;ratioP1;P2;durP2;ratioP2
7160;SDS011;3622;53.576;9.978;2023-02-24T00:00:11;1.07;;;0.73;;
7160;SDS011;3622;53.576;9.978;2023-02-24T00:02:57;1.60;;;0.60;;
7160;SDS011;3622;53.576;9.978;2023-02-24T00:05:23;2.93;;;0.90;;
7160;SDS011;3622;53.576;9.978;2023-02-24T00:07:50;7.23;;;0.70;;
7160;SDS011;3622;53.576;9.978;2023-02-24T00:10:16;2.93;;;0.90;;
7160;SDS011;3622;53.576;9.978;2023-02-24T00:12:43;4.43;;;1.10;;
7160;SDS011;3622;53.576;9.978;2023-02-24T00:15:13;4.20;;;0.83;;
7160;SDS011;3622;53.576;9.978;2023-02-24T00:17:39;7.90;;;1.70;;
7160;SDS011;3622;53.576;9.978;2023-02-24T00:20:05;6.90;;;1.00;;
7160;SDS011;3622;53.576;9.978;2023-02-24T00:22:31;4.27;;;0.87;;
7160;SDS011;3622;53.576;9.978;2023-02-24T00:24:57;4.63;;;1.00;;
7160;SDS011;3622;53.576;9.978;2023-02-24T00:27:26;5.13;;;1.30;;
7160;SDS011;3622;53.576;9.978;2023-02-24T00:29:52;1.27;;;1.17;;
7160;SDS011;3622;53.576;9.978;2023-02-24T00:32:18;3.30;;;0.90;;
7160;SDS011;3622;53.576;9.978;2023-02-24T00:34:44;7.70;;;1.20;;
7160;SDS011;3622;53.576;9.978;2023-02-24T00:37:11;2.80;;;1.20;;
7160;SDS011;3622;53.576;9.978;2023-02-24T00:39:39;4.67;;;1.30;;
7160;SDS011;3622;53.576;9.978;2023-02-24T00:42:05;2.37;;;0.90;;
7160;SDS011;3622;53.576;9.978;2023-02-24T00:44:32;4.87;;;0.83;;
7160;SDS011;3622;53.576;9.978;2023-02-24T00:46:58;2.93;;;1.20;;
7160;SDS011;3622;53.576;9.978;2023-02-24T00:49:29;3.33;;;0.90;;
7160;SDS011;3622;53.576;9.978;2023-02-24T00:51:55;3.40;;;1.00;;
7160;SDS011;3622;53.576;9.978;2023-02-24T00:54:22;13.87;;;1.50;;
7160;SDS011;3622;53.576;9.978;2023-02-24T00:56:52;3.70;;;1.07;;
7160;SDS011;3622;53.576;9.978;2023-02-24T00:59:18;5.93;;;1.03;;
7160;SDS011;3622;53.576;9.978;2023-02-24T01:01:45;3.93;;;1.03;;
7160;SDS011;3622;53.576;9.978;2023-02-24T01:04:13;5.23;;;0.93;;
7160;SDS011;3622;53.576;9.978;2023-02-24T01:06:40;1.90;;;1.30;;
7160;SDS011;3622;53.576;9.978;2023-02-24T01:09:08;3.20;;;0.90;;
7160;SDS011;3622;53.576;9.978;2023-02-24T01:11:38;4.30;;;1.07;;
7160;SDS011;3622;53.576;9.978;2023-02-24T01:14:24;11.87;;;1.17;;
7160;SDS011;3622;53.576;9.978;2023-02-24T01:16:50;3.70;;;1.10;;
7160;SDS011;3622;53.576;9.978;2023-02-24T01:19:18;4.87;;;1.53;;
7160;SDS011;3622;53.576;9.978;2023-02-24T01:21:44;4.33;;;1.00;;
7160;SDS011;3622;53.576;9.978;2023-02-24T01:24:10;12.83;;;1.00;;
7160;SDS011;3622;53.576;9.978;2023-02-24T01:26:37;6.00;;;1.07;;
7160;SDS011;3622;53.576;9.978;2023-02-24T01:29:03;9.87;;;1.43;;
7160;SDS011;3622;53.576;9.978;2023-02-24T01:31:29;2.10;;;0.80;;
7160;SDS011;3622;53.576;9.978;2023-02-24T01:33:55;8.13;;;1.10;;
7160;SDS011;3622;53.576;9.978;2023-02-24T01:36:22;6.80;;;1.03;;
7160;SDS011;3622;53.576;9.978;2023-02-24T01:38:51;1.30;;;0.70;;
7160;SDS011;3622;53.576;9.978;2023-02-24T01:41:19;4.23;;;1.20;;
7160;SDS011;3622;53.576;9.978;2023-02-24T01:43:55;10.00;;;1.10;;
7160;SDS011;3622;53.576;9.978;2023-02-24T01:46:23;11.43;;;1.20;;
7160;SDS011;3622;53.576;9.978;2023-02-24T01:48:49;3.90;;;1.17;;
7160;SDS011;3622;53.576;9.978;2023-02-24T01:51:17;2.10;;;1.00;;
7160;SDS011;3622;53.576;9.978;2023-02-24T01:53:43;5.77;;;0.80;;
7160;SDS011;3622;53.576;9.978;2023-02-24T01:56:09;11.73;;;1.23;;
7160;SDS011;3622;53.576;9.978;2023-02-24T01:58:37;4.53;;;1.60;;
7160;SDS011;3622;53.576;9.978;2023-02-24T02:01:04;5.37;;;1.00;;
7160;SDS011;3622;53.576;9.978;2023-02-24T02:03:33;3.30;;;0.90;;
7160;SDS011;3622;53.576;9.978;2023-02-24T02:06:02;7.47;;;1.20;;
7160;SDS011;3622;53.576;9.978;2023-02-24T02:08:28;6.93;;;0.90;;
7160;SDS011;3622;53.576;9.978;2023-02-24T02:10:55;2.20;;;1.03;;
7160;SDS011;3622;53.576;9.978;2023-02-24T02:13:25;8.73;;;1.40;;
7160;SDS011;3622;53.576;9.978;2023-02-24T02:18:59;4.70;;;1.33;;
7160;SDS011;3622;53.576;9.978;2023-02-24T02:21:46;4.57;;;1.27;;
7160;SDS011;3622;53.576;9.978;2023-02-24T02:26:59;7.10;;;1.00;;
7160;SDS011;3622;53.576;9.978;2023-02-24T02:37:09;4.77;;;1.03;;
7160;SDS011;3622;53.576;9.978;2023-02-24T02:44:34;3.60;;;1.30;;
7160;SDS011;3622;53.576;9.978;2023-02-24T02:49:37;13.43;;;1.07;;
7160;SDS011;3622;53.576;9.978;2023-02-24T02:52:05;7.17;;;1.27;;
7160;SDS011;3622;53.576;9.978;2023-02-24T02:54:45;4.73;;;1.73;;
7160;SDS011;3622;53.576;9.978;2023-02-24T02:57:23;10.33;;;2.27;;
7160;SDS011;3622;53.576;9.978;2023-02-24T02:59:52;5.70;;;1.23;;
7160;SDS011;3622;53.576;9.978;2023-02-24T03:02:22;5.87;;;1.63;;
7160;SDS011;3622;53.576;9.978;2023-02-24T03:04:53;2.67;;;0.93;;
7160;SDS011;3622;53.576;9.978;2023-02-24T03:07:21;5.53;;;1.20;;
7160;SDS011;3622;53.576;9.978;2023-02-24T03:09:52;3.97;;;1.60;;
7160;SDS011;3622;53.576;9.978;2023-02-24T03:12:21;19.80;;;1.20;;
7160;SDS011;3622;53.576;9.978;2023-02-24T03:14:48;3.00;;;1.07;;
7160;SDS011;3622;53.576;9.978;2023-02-24T03:17:17;5.13;;;1.20;;
7160;SDS011;3622;53.576;9.978;2023-02-24T03:19:45;5.90;;;1.17;;
7160;SDS011;3622;53.576;9.978;2023-02-24T03:22:20;4.03;;;1.47;;
7160;SDS011;3622;53.576;9.978;2023-02-24T03:24:48;11.00;;;1.20;;
7160;SDS011;3622;53.576;9.978;2023-02-24T03:27:18;4.30;;;1.10;;
7160;SDS011;3622;53.576;9.978;2023-02-24T03:29:51;3.60;;;1.03;;
7160;SDS011;3622;53.576;9.978;2023-02-24T03:32:22;3.00;;;1.10;;
7160;SDS011;3622;53.576;9.978;2023-02-24T03:37:15;3.20;;;1.00;;
7160;SDS011;3622;53.576;9.978;2023-02-24T03:39:49;4.80;;;1.00;;
7160;SDS011;3622;53.576;9.978;2023-02-24T03:42:17;4.27;;;0.93;;
7160;SDS011;3622;53.576;9.978;2023-02-24T03:44:44;4.07;;;0.93;;
7160;SDS011;3622;53.576;9.978;2023-02-24T03:47:10;3.63;;;1.53;;
7160;SDS011;3622;53.576;9.978;2023-02-24T03:49:36;3.70;;;1.03;;
7160;SDS011;3622;53.576;9.978;2023-02-24T03:54:49;4.40;;;1.17;;
7160;SDS011;3622;53.576;9.978;2023-02-24T04:02:21;6.40;;;1.10;;
7160;SDS011;3622;53.576;9.978;2023-02-24T04:04:56;5.37;;;1.00;;
7160;SDS011;3622;53.576;9.978;2023-02-24T04:07:27;3.10;;;0.70;;
7160;SDS011;3622;53.576;9.978;2023-02-24T04:15:00;6.97;;;2.03;;
7160;SDS011;3622;53.576;9.978;2023-02-24T04:17:49;1.47;;;1.13;;
7160;SDS011;3622;53.576;9.978;2023-02-24T04:20:18;4.10;;;1.00;;
7160;SDS011;3622;53.576;9.978;2023-02-24T04:22:46;5.00;;;1.00;;
7160;SDS011;3622;53.576;9.978;2023-02-24T04:25:16;7.70;;;0.93;;
7160;SDS011;3622;53.576;9.978;2023-02-24T04:27:43;5.13;;;1.00;;
7160;SDS011;3622;53.576;9.978;2023-02-24T04:30:11;4.80;;;1.33;;
7160;SDS011;3622;53.576;9.978;2023-02-24T04:32:38;1.60;;;1.00;;
7160;SDS011;3622;53.576;9.978;2023-02-24T04:35:07;4.50;;;1.03;;
7160;SDS011;3622;53.576;9.978;2023-02-24T04:37:34;2.30;;;0.80;;
7160;SDS011;3622;53.576;9.978;2023-02-24T04:40:00;7.93;;;0.93;;
7160;SDS011;3622;53.576;9.978;2023-02-24T04:42:32;8.47;;;0.83;;
7160;SDS011;3622;53.576;9.978;2023-02-24T04:44:58;4.10;;;1.53;;
7160;SDS011;3622;53.576;9.978;2023-02-24T04:47:24;4.00;;;1.00;;
7160;SDS011;3622;53.576;9.978;2023-02-24T04:49:52;1.37;;;1.27;;
7160;SDS011;3622;53.576;9.978;2023-02-24T04:52:19;4.23;;;0.83;;
7160;SDS011;3622;53.576;9.978;2023-02-24T04:54:45;4.00;;;1.20;;
7160;SDS011;3622;53.576;9.978;2023-02-24T04:57:12;3.00;;;1.23;;
7160;SDS011;3622;53.576;9.978;2023-02-24T04:59:38;1.47;;;1.07;;
7160;SDS011;3622;53.576;9.978;2023-02-24T05:02:04;2.53;;;1.07;;
7160;SDS011;3622;53.576;9.978;2023-02-24T05:04:33;3.53;;;1.10;;
7160;SDS011;3622;53.576;9.978;2023-02-24T05:07:02;3.30;;;1.53;;
7160;SDS011;3622;53.576;9.978;2023-02-24T05:09:28;4.80;;;1.23;;
7160;SDS011;3622;53.576;9.978;2023-02-24T05:11:55;2.30;;;1.23;;
7160;SDS011;3622;53.576;9.978;2023-02-24T05:14:22;4.00;;;0.80;;
7160;SDS011;3622;53.576;9.978;2023-02-24T05:16:49;2.90;;;0.83;;
7160;SDS011;3622;53.576;9.978;2023-02-24T05:19:17;4.10;;;1.30;;
7160;SDS011;3622;53.576;9.978;2023-02-24T05:22:02;2.77;;;1.20;;
7160;SDS011;3622;53.576;9.978;2023-02-24T05:24:30;2.67;;;1.00;;
7160;SDS011;3622;53.576;9.978;2023-02-24T05:26:57;5.37;;;1.10;;
7160;SDS011;3622;53.576;9.978;2023-02-24T05:29:27;5.00;;;1.10;;
7160;SDS011;3622;53.576;9.978;2023-02-24T05:31:54;1.83;;;0.93;;
7160;SDS011;3622;53.576;9.978;2023-02-24T05:34:23;12.20;;;0.90;;
7160;SDS011;3622;53.576;9.978;2023-02-24T05:36:49;1.00;;;0.83;;
7160;SDS011;3622;53.576;9.978;2023-02-24T05:39:17;3.87;;;1.40;;
7160;SDS011;3622;53.576;9.978;2023-02-24T05:41:44;3.67;;;1.50;;
7160;SDS011;3622;53.576;9.978;2023-02-24T05:44:13;4.57;;;1.90;;
7160;SDS011;3622;53.576;9.978;2023-02-24T05:46:40;4.20;;;1.30;;
7160;SDS011;3622;53.576;9.978;2023-02-24T05:49:28;2.07;;;1.57;;
7160;SDS011;3622;53.576;9.978;2023-02-24T05:51:55;7.83;;;1.60;;
7160;SDS011;3622;53.576;9.978;2023-02-24T05:56:52;6.63;;;1.53;;
7160;SDS011;3622;53.576;9.978;2023-02-24T05:59:20;10.43;;;3.33;;
7160;SDS011;3622;53.576;9.978;2023-02-24T06:01:47;2.30;;;1.77;;
7160;SDS011;3622;53.576;9.978;2023-02-24T06:04:14;3.10;;;1.80;;
7160;SDS011;3622;53.576;9.978;2023-02-24T06:06:45;2.77;;;1.40;;
7160;SDS011;3622;53.576;9.978;2023-02-24T06:09:17;5.13;;;1.80;;
7160;SDS011;3622;53.576;9.978;2023-02-24T06:11:43;4.90;;;1.37;;
7160;SDS011;3622;53.576;9.978;2023-02-24T06:14:12;3.50;;;1.57;;
7160;SDS011;3622;53.576;9.978;2023-02-24T06:16:39;2.70;;;1.07;;
7160;SDS011;3622;53.576;9.978;2023-02-24T06:19:06;4.47;;;1.67;;
7160;SDS011;3622;53.576;9.978;2023-02-24T06:21:33;5.03;;;1.50;;
7160;SDS011;3622;53.576;9.978;2023-02-24T06:23:59;5.00;;;1.80;;
7160;SDS011;3622;53.576;9.978;2023-02-24T06:26:25;5.80;;;1.23;;
7160;SDS011;3622;53.576;9.978;2023-02-24T06:28:54;2.50;;;1.40;;
7160;SDS011;3622;53.576;9.978;2023-02-24T06:31:20;9.70;;;1.50;;
7160;SDS011;3622;53.576;9.978;2023-02-24T06:33:46;4.03;;;1.37;;
7160;SDS011;3622;53.576;9.978;2023-02-24T06:36:13;3.13;;;1.73;;
7160;SDS011;3622;53.576;9.978;2023-02-24T06:38:39;6.67;;;1.37;;
7160;SDS011;3622;53.576;9.978;2023-02-24T06:41:06;5.00;;;1.23;;
7160;SDS011;3622;53.576;9.978;2023-02-24T06:43:39;2.77;;;1.50;;
7160;SDS011;3622;53.576;9.978;2023-02-24T06:46:07;3.70;;;1.47;;
7160;SDS011;3622;53.576;9.978;2023-02-24T06:48:33;5.37;;;1.83;;
7160;SDS011;3622;53.576;9.978;2023-02-24T06:51:09;3.50;;;1.70;;
7160;SDS011;3622;53.576;9.978;2023-02-24T06:53:37;2.30;;;1.07;;
7160;SDS011;3622;53.576;9.978;2023-02-24T06:58:41;2.90;;;1.77;;
7160;SDS011;3622;53.576;9.978;2023-02-24T07:01:08;3.53;;;1.73;;
7160;SDS011;3622;53.576;9.978;2023-02-24T07:03:35;5.47;;;2.37;;
7160;SDS011;3622;53.576;9.978;2023-02-24T07:06:11;3.00;;;1.30;;
7160;SDS011;3622;53.576;9.978;2023-02-24T07:08:48;4.70;;;1.40;;
7160;SDS011;3622;53.576;9.978;2023-02-24T07:11:14;5.53;;;2.03;;
7160;SDS011;3622;53.576;9.978;2023-02-24T07:13:43;5.37;;;2.30;;
7160;SDS011;3622;53.576;9.978;2023-02-24T07:16:11;3.13;;;1.80;;
7160;SDS011;3622;53.576;9.978;2023-02-24T07:18:39;7.40;;;1.57;;
7160;SDS011;3622;53.576;9.978;2023-02-24T07:21:07;6.37;;;1.63;;
7160;SDS011;3622;53.576;9.978;2023-02-24T07:23:36;1.27;;;1.10;;
7160;SDS011;3622;53.576;9.978;2023-02-24T07:26:11;4.13;;;1.80;;
7160;SDS011;3622;53.576;9.978;2023-02-24T07:28:38;2.90;;;1.10;;
7160;SDS011;3622;53.576;9.978;2023-02-24T07:31:09;4.13;;;1.47;;
7160;SDS011;3622;53.576;9.978;2023-02-24T07:33:35;3.50;;;2.07;;
7160;SDS011;3622;53.576;9.978;2023-02-24T07:36:03;3.37;;;2.20;;
7160;SDS011;3622;53.576;9.978;2023-02-24T07:38:33;2.00;;;1.80;;
7160;SDS011;3622;53.576;9.978;2023-02-24T07:41:00;3.43;;;1.40;;
7160;SDS011;3622;53.576;9.978;2023-02-24T07:43:26;3.63;;;1.60;;
7160;SDS011;3622;53.576;9.978;2023-02-24T07:45:52;6.50;;;1.70;;
7160;SDS011;3622;53.576;9.978;2023-02-24T07:48:18;5.47;;;2.07;;
7160;SDS011;3622;53.576;9.978;2023-02-24T07:50:45;4.97;;;1.83;;
7160;SDS011;3622;53.576;9.978;2023-02-24T07:53:11;5.87;;;2.40;;
7160;SDS011;3622;53.576;9.978;2023-02-24T07:55:40;5.37;;;2.60;;
7160;SDS011;3622;53.576;9.978;2023-02-24T07:58:06;4.33;;;1.93;;
7160;SDS011;3622;53.576;9.978;2023-02-24T08:00:34;3.63;;;1.93;;
7160;SDS011;3622;53.576;9.978;2023-02-24T08:03:20;5.53;;;2.17;;
7160;SDS011;3622;53.576;9.978;2023-02-24T08:05:47;2.50;;;1.77;;
7160;SDS011;3622;53.576;9.978;2023-02-24T08:08:13;2.00;;;1.77;;
7160;SDS011;3622;53.576;9.978;2023-02-24T08:10:44;2.90;;;2.13;;
7160;SDS011;3622;53.576;9.978;2023-02-24T08:13:11;4.90;;;1.80;;
7160;SDS011;3622;53.576;9.978;2023-02-24T08:15:37;7.67;;;3.07;;
7160;SDS011;3622;53.576;9.978;2023-02-24T08:18:03;3.20;;;2.03;;
7160;SDS011;3622;53.576;9.978;2023-02-24T08:20:30;5.00;;;1.57;;
7160;SDS011;3622;53.576;9.978;2023-02-24T08:23:15;2.63;;;1.57;;
7160;SDS011;3622;53.576;9.978;2023-02-24T08:25:42;3.57;;;1.90;;
7160;SDS011;3622;53.576;9.978;2023-02-24T08:28:08;3.93;;;1.57;;
7160;SDS011;3622;53.576;9.978;2023-02-24T08:30:36;4.07;;;2.10;;
7160;SDS011;3622;53.576;9.978;2023-02-24T08:33:03;4.40;;;2.03;;
7160;SDS011;3622;53.576;9.978;2023-02-24T08:35:30;3.50;;;2.30;;
7160;SDS011;3622;53.576;9.978;2023-02-24T08:38:01;4.20;;;2.73;;
7160;SDS011;3622;53.576;9.978;2023-02-24T08:40:32;5.40;;;3.63;;
7160;SDS011;3622;53.576;9.978;2023-02-24T08:42:59;5.03;;;4.00;;
7160;SDS011;3622;53.576;9.978;2023-02-24T08:45:45;4.63;;;3.70;;
7160;SDS011;3622;53.576;9.978;2023-02-24T08:48:15;6.87;;;4.77;;
7160;SDS011;3622;53.576;9.978;2023-02-24T08:50:56;4.10;;;3.70;;
7160;SDS011;3622;53.576;9.978;2023-02-24T08:53:22;8.00;;;5.30;;
7160;SDS011;3622;53.576;9.978;2023-02-24T08:55:53;10.07;;;5.70;;
7160;SDS011;3622;53.576;9.978;2023-02-24T08:58:20;6.80;;;5.17;;
7160;SDS011;3622;53.576;9.978;2023-02-24T09:01:00;5.87;;;4.50;;
7160;SDS011;3622;53.576;9.978;2023-02-24T09:03:28;10.13;;;5.13;;
7160;SDS011;3622;53.576;9.978;2023-02-24T09:06:04;5.60;;;3.97;;
7160;SDS011;3622;53.576;9.978;2023-02-24T09:08:31;7.13;;;4.37;;
7160;SDS011;3622;53.576;9.978;2023-02-24T09:11:01;16.83;;;4.80;;
7160;SDS011;3622;53.576;9.978;2023-02-24T09:13:32;4.80;;;4.30;;
7160;SDS011;3622;53.576;9.978;2023-02-24T09:16:01;5.30;;;3.93;;
7160;SDS011;3622;53.576;9.978;2023-02-24T09:18:28;5.20;;;3.90;;
7160;SDS011;3622;53.576;9.978;2023-02-24T09:20:57;4.60;;;4.07;;
7160;SDS011;3622;53.576;9.978;2023-02-24T09:23:42;3.80;;;3.50;;
7160;SDS011;3622;53.576;9.978;2023-02-24T09:26:11;4.77;;;3.20;;
7160;SDS011;3622;53.576;9.978;2023-02-24T09:28:38;6.13;;;3.70;;
7160;SDS011;3622;53.576;9.978;2023-02-24T09:31:13;11.10;;;3.70;;
7160;SDS011;3622;53.576;9.978;2023-02-24T09:33:42;4.23;;;3.07;;
7160;SDS011;3622;53.576;9.978;2023-02-24T09:36:15;3.90;;;3.30;;
7160;SDS011;3622;53.576;9.978;2023-02-24T09:38:45;5.20;;;3.50;;
7160;SDS011;3622;53.576;9.978;2023-02-24T09:41:31;3.40;;;3.20;;
7160;SDS011;3622;53.576;9.978;2023-02-24T09:44:17;3.80;;;3.53;;
7160;SDS011;3622;53.576;9.978;2023-02-24T09:46:48;4.60;;;3.20;;
7160;SDS011;3622;53.576;9.978;2023-02-24T09:49:23;3.70;;;3.40;;
7160;SDS011;3622;53.576;9.978;2023-02-24T09:51:52;6.40;;;3.83;;
7160;SDS011;3622;53.576;9.978;2023-02-24T09:54:26;3.73;;;3.43;;
7160;SDS011;3622;53.576;9.978;2023-02-24T09:56:57;5.93;;;4.20;;
7160;SDS011;3622;53.576;9.978;2023-02-24T10:07:38;3.87;;;3.57;;
7160;SDS011;3622;53.576;9.978;2023-02-24T10:10:06;5.10;;;3.90;;
7160;SDS011;3622;53.576;9.978;2023-02-24T10:12:52;6.43;;;4.13;;
7160;SDS011;3622;53.576;9.978;2023-02-24T10:15:24;4.90;;;3.90;;
7160;SDS011;3622;53.576;9.978;2023-02-24T10:20:52;4.60;;;3.90;;
7160;SDS011;3622;53.576;9.978;2023-02-24T10:23:38;3.83;;;3.43;;
7160;SDS011;3622;53.576;9.978;2023-02-24T10:26:16;5.47;;;4.47;;
7160;SDS011;3622;53.576;9.978;2023-02-24T10:29:06;4.60;;;3.80;;
7160;SDS011;3622;53.576;9.978;2023-02-24T10:31:45;4.47;;;3.33;;
7160;SDS011;3622;53.576;9.978;2023-02-24T10:34:12;3.60;;;3.30;;
7160;SDS011;3622;53.576;9.978;2023-02-24T10:36:44;3.37;;;3.07;;
7160;SDS011;3622;53.576;9.978;2023-02-24T10:39:21;3.67;;;3.47;;
7160;SDS011;3622;53.576;9.978;2023-02-24T10:41:52;3.43;;;3.13;;
7160;SDS011;3622;53.576;9.978;2023-02-24T10:44:27;3.40;;;3.17;;
7160;SDS011;3622;53.576;9.978;2023-02-24T10:47:08;4.40;;;3.87;;
7160;SDS011;3622;53.576;9.978;2023-02-24T10:49:42;3.70;;;3.20;;
7160;SDS011;3622;53.576;9.978;2023-02-24T10:52:21;3.50;;;3.20;;
7160;SDS011;3622;53.576;9.978;2023-02-24T10:55:06;3.57;;;3.27;;
7160;SDS011;3622;53.576;9.978;2023-02-24T10:58:00;3.30;;;2.80;;
7160;SDS011;3622;53.576;9.978;2023-02-24T11:00:40;5.43;;;3.20;;
7160;SDS011;3622;53.576;9.978;2023-02-24T11:03:25;3.80;;;3.40;;
7160;SDS011;3622;53.576;9.978;2023-02-24T11:06:05;4.60;;;3.00;;
7160;SDS011;3622;53.576;9.978;2023-02-24T11:08:57;5.73;;;3.00;;
7160;SDS011;3622;53.576;9.978;2023-02-24T11:11:43;5.30;;;2.87;;
7160;SDS011;3622;53.576;9.978;2023-02-24T11:14:28;2.90;;;2.60;;
7160;SDS011;3622;53.576;9.978;2023-02-24T11:17:20;4.47;;;3.00;;
7160;SDS011;3622;53.576;9.978;2023-02-24T11:20:06;6.13;;;3.60;;
7160;SDS011;3622;53.576;9.978;2023-02-24T11:22:41;3.00;;;2.60;;
7160;SDS011;3622;53.576;9.978;2023-02-24T11:25:54;4.77;;;2.80;;
7160;SDS011;3622;53.576;9.978;2023-02-24T11:27:56;3.47;;;2.83;;
7160;SDS011;3622;53.576;9.978;2023-02-24T11:30:36;3.13;;;2.93;;
7160;SDS011;3622;53.576;9.978;2023-02-24T11:38:45;3.40;;;3.10;;
7160;SDS011;3622;53.576;9.978;2023-02-24T11:43:42;3.73;;;3.53;;
7160;SDS011;3622;53.576;9.978;2023-02-24T11:46:14;3.73;;;2.63;;
7160;SDS011;3622;53.576;9.978;2023-02-24T11:48:59;4.50;;;3.57;;
7160;SDS011;3622;53.576;9.978;2023-02-24T11:51:31;3.60;;;3.20;;
7160;SDS011;3622;53.576;9.978;2023-02-24T11:54:08;3.73;;;3.30;;
7160;SDS011;3622;53.576;9.978;2023-02-24T11:56:40;3.83;;;2.90;;
7160;SDS011;3622;53.576;9.978;2023-02-24T11:59:11;7.93;;;3.10;;
7160;SDS011;3622;53.576;9.978;2023-02-24T12:01:46;3.07;;;2.87;;
7160;SDS011;3622;53.576;9.978;2023-02-24T12:04:21;5.83;;;3.37;;
7160;SDS011;3622;53.576;9.978;2023-02-24T12:07:09;4.10;;;3.80;;
7160;SDS011;3622;53.576;9.978;2023-02-24T12:09:40;6.60;;;3.40;;
7160;SDS011;3622;53.576;9.978;2023-02-24T12:12:22;5.33;;;3.27;;
7160;SDS011;3622;53.576;9.978;2023-02-24T12:14:53;2.70;;;2.60;;
7160;SDS011;3622;53.576;9.978;2023-02-24T12:17:30;4.20;;;3.20;;
7160;SDS011;3622;53.576;9.978;2023-02-24T12:20:06;3.83;;;3.53;;
7160;SDS011;3622;53.576;9.978;2023-02-24T12:22:45;6.23;;;3.20;;
7160;SDS011;3622;53.576;9.978;2023-02-24T12:25:15;3.97;;;3.30;;
7160;SDS011;3622;53.576;9.978;2023-02-24T12:27:53;3.97;;;3.30;;
7160;SDS011;3622;53.576;9.978;2023-02-24T12:30:30;13.50;;;3.70;;
7160;SDS011;3622;53.576;9.978;2023-02-24T12:35:39;5.20;;;3.63;;
7160;SDS011;3622;53.576;9.978;2023-02-24T12:40:42;6.83;;;4.07;;
7160;SDS011;3622;53.576;9.978;2023-02-24T12:43:21;3.40;;;3.20;;
7160;SDS011;3622;53.576;9.978;2023-02-24T12:45:52;7.13;;;4.10;;
7160;SDS011;3622;53.576;9.978;2023-02-24T12:50:47;5.30;;;3.53;;
7160;SDS011;3622;53.576;9.978;2023-02-24T12:53:21;4.93;;;3.83;;
7160;SDS011;3622;53.576;9.978;2023-02-24T12:58:35;9.33;;;4.53;;
7160;SDS011;3622;53.576;9.978;2023-02-24T13:13:55;6.97;;;4.60;;
7160;SDS011;3622;53.576;9.978;2023-02-24T13:16:28;16.50;;;4.17;;
7160;SDS011;3622;53.576;9.978;2023-02-24T13:21:39;9.33;;;4.00;;
7160;SDS011;3622;53.576;9.978;2023-02-24T13:24:16;10.97;;;4.63;;
7160;SDS011;3622;53.576;9.978;2023-02-24T13:26:44;4.17;;;3.77;;
7160;SDS011;3622;53.576;9.978;2023-02-24T13:29:11;9.27;;;3.97;;
7160;SDS011;3622;53.576;9.978;2023-02-24T13:31:42;8.20;;;3.90;;
7160;SDS011;3622;53.576;9.978;2023-02-24T13:34:29;8.10;;;3.90;;
7160;SDS011;3622;53.576;9.978;2023-02-24T13:36:55;5.87;;;3.07;;
7160;SDS011;3622;53.576;9.978;2023-02-24T13:39:22;4.03;;;3.30;;
7160;SDS011;3622;53.576;9.978;2023-02-24T13:41:59;10.30;;;3.70;;
7160;SDS011;3622;53.576;9.978;2023-02-24T13:44:27;9.70;;;4.00;;
7160;SDS011;3622;53.576;9.978;2023-02-24T14:00:19;8.20;;;1.67;;
7160;SDS011;3622;53.576;9.978;2023-02-24T14:02:48;15.23;;;2.47;;
7160;SDS011;3622;53.576;9.978;2023-02-24T14:05:24;9.07;;;1.83;;
7160;SDS011;3622;53.576;9.978;2023-02-24T14:07:51;5.90;;;1.00;;
7160;SDS011;3622;53.576;9.978;2023-02-24T14:10:19;7.83;;;1.60;;
7160;SDS011;3622;53.576;9.978;2023-02-24T14:12:47;4.70;;;1.10;;
7160;SDS011;3622;53.576;9.978;2023-02-24T14:15:16;7.30;;;1.30;;
7160;SDS011;3622;53.576;9.978;2023-02-24T14:17:52;4.17;;;1.10;;
7160;SDS011;3622;53.576;9.978;2023-02-24T14:20:19;5.53;;;0.90;;
7160;SDS011;3622;53.576;9.978;2023-02-24T14:22:47;3.50;;;1.00;;
7160;SDS011;3622;53.576;9.978;2023-02-24T14:25:13;3.10;;;1.03;;
7160;SDS011;3622;53.576;9.978;2023-02-24T14:27:41;4.77;;;0.93;;
7160;SDS011;3622;53.576;9.978;2023-02-24T14:30:19;5.47;;;1.00;;
7160;SDS011;3622;53.576;9.978;2023-02-24T14:32:46;3.17;;;1.13;;
7160;SDS011;3622;53.576;9.978;2023-02-24T14:35:46;3.10;;;1.33;;
7160;SDS011;3622;53.576;9.978;2023-02-24T14:38:05;6.07;;;1.40;;
7160;SDS011;3622;53.576;9.978;2023-02-24T14:40:31;6.97;;;1.67;;
7160;SDS011;3622;53.576;9.978;2023-02-24T14:42:57;7.03;;;1.33;;
7160;SDS011;3622;53.576;9.978;2023-02-24T14:45:25;5.93;;;1.53;;
7160;SDS011;3622;53.576;9.978;2023-02-24T14:47:52;3.43;;;0.80;;
7160;SDS011;3622;53.576;9.978;2023-02-24T14:50:19;8.57;;;1.27;;
7160;SDS011;3622;53.576;9.978;2023-02-24T14:52:49;7.17;;;1.60;;
7160;SDS011;3622;53.576;9.978;2023-02-24T14:55:23;6.53;;;1.67;;
7160;SDS011;3622;53.576;9.978;2023-02-24T14:58:11;5.67;;;1.37;;
7160;SDS011;3622;53.576;9.978;2023-02-24T15:00:48;7.37;;;1.70;;
7160;SDS011;3622;53.576;9.978;2023-02-24T15:03:22;6.20;;;2.23;;
7160;SDS011;3622;53.576;9.978;2023-02-24T15:05:49;9.30;;;1.77;;
7160;SDS011;3622;53.576;9.978;2023-02-24T15:10:51;6.37;;;1.80;;
7160;SDS011;3622;53.576;9.978;2023-02-24T15:13:21;6.50;;;0.80;;
7160;SDS011;3622;53.576;9.978;2023-02-24T15:15:50;4.20;;;1.40;;
7160;SDS011;3622;53.576;9.978;2023-02-24T15:18:23;7.67;;;1.50;;
7160;SDS011;3622;53.576;9.978;2023-02-24T15:21:04;7.40;;;1.20;;
7160;SDS011;3622;53.576;9.978;2023-02-24T15:23:31;9.03;;;1.27;;
7160;SDS011;3622;53.576;9.978;2023-02-24T15:25:58;5.60;;;1.30;;
7160;SDS011;3622;53.576;9.978;2023-02-24T15:28:28;2.00;;;0.80;;
7160;SDS011;3622;53.576;9.978;2023-02-24T15:33:24;5.83;;;0.90;;
7160;SDS011;3622;53.576;9.978;2023-02-24T15:35:51;4.60;;;1.17;;
7160;SDS011;3622;53.576;9.978;2023-02-24T15:38:31;3.63;;;0.80;;
7160;SDS011;3622;53.576;9.978;2023-02-24T15:40:58;10.10;;;1.50;;
7160;SDS011;3622;53.576;9.978;2023-02-24T15:45:57;6.10;;;1.07;;
7160;SDS011;3622;53.576;9.978;2023-02-24T15:48:23;6.73;;;1.10;;
7160;SDS011;3622;53.576;9.978;2023-02-24T15:50:53;2.57;;;1.30;;
7160;SDS011;3622;53.576;9.978;2023-02-24T15:53:20;8.20;;;1.20;;
7160;SDS011;3622;53.576;9.978;2023-02-24T15:55:46;3.97;;;1.40;;
7160;SDS011;3622;53.576;9.978;2023-02-24T15:58:13;13.67;;;1.40;;
7160;SDS011;3622;53.576;9.978;2023-02-24T16:00:41;4.40;;;0.90;;
7160;SDS011;3622;53.576;9.978;2023-02-24T16:03:07;2.60;;;1.47;;
7160;SDS011;3622;53.576;9.978;2023-02-24T16:05:33;7.43;;;1.90;;
7160;SDS011;3622;53.576;9.978;2023-02-24T16:07:59;2.93;;;0.97;;
7160;SDS011;3622;53.576;9.978;2023-02-24T16:12:53;5.90;;;1.07;;
7160;SDS011;3622;53.576;9.978;2023-02-24T16:15:24;3.10;;;1.33;;
7160;SDS011;3622;53.576;9.978;2023-02-24T16:17:51;6.40;;;1.40;;
7160;SDS011;3622;53.576;9.978;2023-02-24T16:20:19;9.77;;;1.33;;
7160;SDS011;3622;53.576;9.978;2023-02-24T16:22:51;5.90;;;1.27;;
7160;SDS011;3622;53.576;9.978;2023-02-24T16:25:17;6.30;;;1.30;;
7160;SDS011;3622;53.576;9.978;2023-02-24T16:27:43;3.93;;;1.20;;
7160;SDS011;3622;53.576;9.978;2023-02-24T16:30:18;8.40;;;2.10;;
7160;SDS011;3622;53.576;9.978;2023-02-24T16:32:44;7.20;;;1.23;;
7160;SDS011;3622;53.576;9.978;2023-02-24T16:35:11;4.23;;;1.17;;
7160;SDS011;3622;53.576;9.978;2023-02-24T16:37:38;5.90;;;1.37;;
7160;SDS011;3622;53.576;9.978;2023-02-24T16:40:09;5.07;;;0.90;;
7160;SDS011;3622;53.576;9.978;2023-02-24T16:42:40;5.37;;;1.10;;
7160;SDS011;3622;53.576;9.978;2023-02-24T16:45:06;8.37;;;1.50;;
7160;SDS011;3622;53.576;9.978;2023-02-24T16:47:32;2.90;;;1.27;;
7160;SDS011;3622;53.576;9.978;2023-02-24T16:49:58;6.50;;;1.43;;
7160;SDS011;3622;53.576;9.978;2023-02-24T16:52:24;4.60;;;1.47;;
7160;SDS011;3622;53.576;9.978;2023-02-24T16:54:52;10.97;;;2.37;;
7160;SDS011;3622;53.576;9.978;2023-02-24T16:57:18;6.00;;;0.90;;
7160;SDS011;3622;53.576;9.978;2023-02-24T16:59:49;5.50;;;1.77;;
7160;SDS011;3622;53.576;9.978;2023-02-24T17:02:16;8.50;;;2.23;;
7160;SDS011;3622;53.576;9.978;2023-02-24T17:04:43;6.07;;;1.57;;
7160;SDS011;3622;53.576;9.978;2023-02-24T17:07:09;6.73;;;1.90;;
7160;SDS011;3622;53.576;9.978;2023-02-24T17:09:35;18.90;;;1.90;;
7160;SDS011;3622;53.576;9.978;2023-02-24T17:12:01;9.67;;;2.17;;
7160;SDS011;3622;53.576;9.978;2023-02-24T17:14:27;16.93;;;2.47;;
7160;SDS011;3622;53.576;9.978;2023-02-24T17:16:53;12.63;;;2.20;;
7160;SDS011;3622;53.576;9.978;2023-02-24T17:19:19;11.37;;;2.47;;
7160;SDS011;3622;53.576;9.978;2023-02-24T17:21:45;5.83;;;2.60;;
7160;SDS011;3622;53.576;9.978;2023-02-24T17:24:12;11.20;;;2.30;;